AirNav  
 
 702 users online  

KMPI Mariposa-Yosemite Airport
Mariposa, California, USA

GOING TO MARIPOSA?


FAA INFORMATION EFFECTIVE 01 FEBRUARY 2018

Location

FAA Identifier: MPI
Lat/Long: 37-30-39.1000N / 120-02-22.3000W
37-30.651667N / 120-02.371667W
37.5108611 / -120.0395278
(estimated)
Elevation: 2254.4 ft. / 687.1 m (surveyed)
Variation: 15E (1985)
From city: 4 miles W of MARIPOSA, CA
Time zone: UTC -8 (UTC -7 during Daylight Saving Time)
Zip code: 95338

Airport Operations

Airport use: Open to the public
Activation date: 04/1940
Control tower: no
ARTCC: OAKLAND CENTER
FSS: RANCHO MURIETA FLIGHT SERVICE STATION
NOTAMs facility: RIU (NOTAM-D service available)
Attendance: MON-FRI 1000-1600
Pattern altitude: 3254.4 ft. MSL
Wind indicator: lighted
Segmented circle: yes
Lights: ACTVT PAPI RWY 08 & 26; MIRL RWY 08/26 - CTAF.
Beacon: white-green (lighted land airport)
Operates sunset to sunrise.

Airport Communications

CTAF/UNICOM: 122.7
WX AWOS-3: 135.6 (209-966-2912)
  • APCH/DEP SVC PROVIDED BY OAKLAND ARTCC FREQ 121.25/327.0 (ANGEL'S CAMP RCAG).

Nearby radio navigation aids

VOR radial/distance  VOR name  Freq  Var
HYPr030/24.5EL NIDO VOR/DME114.2015E
FRAr302/32.3FRIANT VORTAC115.6017E
CZQr329/39.1CLOVIS VORTAC112.9015E

Airport Services

Fuel available: 100LL JET-A
FUEL AVBL 24 HRS WITH CREDIT CARD.
Parking: tiedowns
Airframe service: NONE
Powerplant service: MAJOR
Bottled oxygen: NONE
Bulk oxygen: NONE

Runway Information

Runway 8/26

Dimensions: 3306 x 60 ft. / 1008 x 18 m
Surface: asphalt, in excellent condition
Weight bearing capacity: 
Single wheel: 12.0
Runway edge lights: medium intensity
RUNWAY 8  RUNWAY 26
Latitude: 37-30.698003N37-30.606360N
Longitude: 120-02.709330W120-02.035343W
Elevation: 2254.4 ft.2223.2 ft.
Gradient: 1.1%0.9% UP
Traffic pattern: rightleft
Runway heading: 085 magnetic, 100 true265 magnetic, 280 true
Markings: nonprecision, in good conditionnonprecision, in good condition
Visual slope indicator: 2-light PAPI on left (4.00 degrees glide path)2-light PAPI on left (4.50 degrees glide path)
Runway end identifier lights: nono
Touchdown point: yes, no lightsyes, no lights
Obstructions: 45 ft. tree, 1340 ft. from runway, 130 ft. right of centerline, 25:1 slope to clear29 ft. tree, 762 ft. from runway, 83 ft. left of centerline, 20:1 slope to clear

Airport Ownership and Management from official FAA records

Ownership: Publicly-owned
Owner: COUNTY OF MARIPOSA
4639 BEN HUR ROAD
MARIPOSA, CA 95338
Phone 209-966-5356
Manager: ANTHONY BORRESON
5020 MACREADY WAY
MARIPOSA, CA 95338
Phone (209) 966-2143
MPA-AIRPORT@MARIPOSACOUNTY.ORG

Airport Operational Statistics

Aircraft based on the field: 25
Single engine airplanes: 21
Multi engine airplanes: 4
    
Aircraft operations: avg 25/day *
66% local general aviation
33% transient general aviation
1% air taxi
* for 12-month period ending 02 May 2017

Additional Remarks

TRANSITIONAL SURFACE OBSTRUCTION: MOUNTAINS TO NORTH OF RWY 08/26.
RY 08 TERRAIN DROPS ALONG BOTH SIDES OF TWY 45 FT FM RY EDGE.
BIRDS ON AND INVOF ARPT.

Instrument Procedures

NOTE: All procedures below are presented as PDF files. If you need a reader for these files, you should download the free Adobe Reader.

NOT FOR NAVIGATION. Please procure official charts for flight.
FAA instrument procedures published for use between 1 February 2018 at 0901Z and 1 March 2018 at 0900Z.

 
IAPs - Instrument Approach Procedures
RNAV (GPS)-A   download (227KB)
RNAV (GPS)-B   download (236KB)
NOTE: Special Take-Off Minimums/Departure Procedures apply   download (128KB)

Other nearby airports with instrument procedures:

E45 - Pine Mountain Lake Airport (22 nm N)
KMCE - Merced Regional Airport/Macready Field (26 nm SW)
KMER - Castle Airport (26 nm W)
KMAE - Madera Municipal Airport (32 nm S)
O22 - Columbia Airport (36 nm NW)
 
Loc | Ops | Rwys | IFR | FBO | Links
Com | Nav | Svcs | Stats | Notes

AirNav Hotels Sweepstakes
 
Area around KMPI (Mariposa-Yosemite Airport)
 
Road maps at: MapQuest Bing Google
 
Aerial photo
WARNING: Photo may not be current or correct
Aerial photo of KMPI (Mariposa-Yosemite Airport)
Photo by David Newcomer
Photo taken 27-Oct-2014
from 2,000 AGL looking northeast.

Do you have a better or more recent aerial photo of Mariposa-Yosemite Airport that you would like to share? If so, please send us your photo.

 
Sectional chart

 
Airport distance calculator
Flying to Mariposa-Yosemite Airport? Find the distance to fly.

From to KMPI

Sunrise and sunset
Times for 20-Feb-2018
 Local
(UTC-8)
 Zulu
(UTC)
Morning civil twilight06:1814:18
Sunrise06:4414:44
Sunset17:4401:44
Evening civil twilight18:1002:10

Current date and time
Zulu (UTC)  20-Feb-2018 12:39:29
Local (UTC-8)  20-Feb-2018 04:39:29
 
METAR
KMCE 
26nm SW 
201153Z AUTO 00000KT 10SM CLR 00/M06 A3016 RMK AO2 SLP212 T00001056 10044 21017 51013
KMER 
26nm W 
201215Z AUTO 00000KT 10SM CLR M01/M03 A3017 RMK AO1
KMAE 
32nm S 
201153Z AUTO 00000KT 10SM CLR M02/M06 A3016 RMK AO2 SLP215 T10171061 10028 21022 51011 $
KO22 
36nm NW 
201215Z AUTO 00000KT 10SM CLR 00/M13 A3011 RMK AO1
KMOD 
44nm W 
201153Z AUTO 25005KT 10SM CLR 02/M02 A3017 RMK AO2 SLP215 T00221017 10056 20011 51010
KFAT 
46nm S 
201153Z 00000KT 10SM CLR 00/M05 A3016 RMK AO2 SLP213 T00001050 10056 20000 51010
KCPU 
48nm NW 
201210Z AUTO 00000KT 10SM CLR M04/M08 A3012 RMK AO2 T10391076
KFCH 
49nm S 
201215Z AUTO 00000KT 10SM 00/M05 A3016 RMK A01
TAF
KMCE 
26nm SW 
201120Z 2012/2112 34007KT P6SM SKC
KMER 
26nm W 
201120Z 2012/2112 32007KT P6SM SKC
NOTAMs
Click for the latest NOTAMs
NOTAMs are issued by the DoD/FAA and will open in a separate window not controlled by AirNav.

 

 
 

FBO, Fuel Providers, and Aircraft Ground Support

  
 Business Name 
 
 Contact 
 
 Services / Description 
 
Fuel Prices
 
Comments
  
 Airborrn Aviation Services, LLC
209-966-2143
[web site]
[email]
Airport management, Aviation fuel, Aircraft parking (ramp or tiedown), Hangars, Flight training, Aircraft rental, Aerial tours / aerial sightseeing, Aircraft maintenance, ...
 
Courtesy car   National Association of Flight Instructors  
 
More info about Airborrn Aviation Services, LLC
Shell
100LL Jet A
AS --- $4.30 
SS $4.50 --- 
 Updated 16-Feb-2018
 
   3 read write
AS=Assisted/Self Service
SS=Self service
Update Fuel Prices
 

Getting Around: Taxi, Limo, Rental Cars, Mass Transit

  
 Business Name 
 
 Contact 
 
Services / Description
 
Comments
  
YARTS [web site]
no information available

If you are affiliated with YARTS and would like to show here your services, contact info, web link, logo, and more, click here
 
   write
 

Would you like to see your business listed on this page?

 If your business provides an interesting product or service to pilots, flight crews, aircraft, or users of the Mariposa-Yosemite Airport, you should consider listing it here.  To start the listing process, click on the button below
 
Add a business
 

Other Pages about Mariposa-Yosemite Airport

www.mariposayosemiteairport.com
 
Update a link
 
Copyright © AirNav, LLC. All rights reserved. Privacy Policy  Contact